Aden, Yemen
Current Conditions -  °F | °C
As of 3:00 PM on Wednesday 26 Nov 2014 (Local Time) from OYAA Reporting Station
Few Clouds Few Clouds  
Wind Chill: 84°   Ceiling: Unl
Heat Index: 87°   Visibility: 6mi
Dew Point: 68°   Wind: 13mph
Humidity: 58%   Direction: 150°SSE
Pressure: 29.85"   Gusts: NA
Location:  12.79°N, 45.03°E
Report Text: OYAA 261200Z 15011KT 9999 FEW018 29/20 Q1011
Loading
Personal Weather Stations






























Interactive Weather Map New forecast layout! Learn more

10-Day Weather Forecast

Advertisements
Track Severe Weather on mobile